Estación Meteorológica Peña el Pijo (Robertgarden) [ 12/09/19 16:25:18 CET ]

Fecha Hora Presion(HPa) Temp (°C) Humedad % Rocio (°C) Viento ( m/s) Direccion Lluvia 1Hora(mm) Lluvia 24H(mm) LLuvia Total(mm)
2019-Aug-20 01:01:45 1011.100 18.3 70 12.8         363.34
2019-Aug-20 02:01:49 1011.000 16.9 72 11.8         363.34
2019-Aug-20 03:01:44 1010.600 15.8 75 11.4         363.34
2019-Aug-20 04:01:44 1010.400 14.8 76 10.6         363.34
2019-Aug-20 05:03:11 1010.500 13.8 77 9.8         363.34
2019-Aug-20 06:01:34 1010.100 12.8 78 9.0         363.34
2019-Aug-20 07:01:43 1010.400 11.9 79 8.4         363.34
2019-Aug-20 08:01:56 1010.800 11.5 80 8.2         363.34
2019-Aug-20 09:01:59 1010.300 17.6 74 12.9         363.34
2019-Aug-20 10:01:41 1010.200 23.1 56 13.8         363.34
2019-Aug-20 11:01:48 1010.600 26.9 42 12.9         363.34
2019-Aug-20 12:01:43 1011.300 28.6 41 14.1 1.5 SSW     363.34
2019-Aug-20 13:01:40 1011.300 30.8 37 14.4         363.34
2019-Aug-20 14:01:55 1011.100 30.6 39 15.1         363.34
2019-Aug-20 15:01:36 1011.000 33.2 36 16.0         363.34
2019-Aug-20 16:01:47 1010.600 30.3 42 16.0         363.34
2019-Aug-20 17:01:54 1010.500 30.1 42 15.8         363.34
2019-Aug-20 18:01:58 1010.600 28.0 46 15.2         363.34
2019-Aug-20 19:01:49 1010.900 26.9 51 15.9         363.34
2019-Aug-20 20:01:41 1011.900 21.8 70 16.1     1.03 1.03 364.38
2019-Aug-20 21:01:42 1012.400 20.1 82 16.9     0.51 1.55 364.90
2019-Aug-20 22:02:00 1013.100 19.1 84 16.3       1.55 364.90
2019-Aug-20 23:02:06 1013.500 18.9 86 16.5     1.55 3.10 366.45

Temperatura Máxima:33°    Temperatura Mínima:11°
Presión Máxima:1013.500 Hpa    Presión Mínima:1010.100 Hpa


Volver